sensor_id;sensor_type;location;lat;lon;timestamp;P1;durP1;ratioP1;P2;durP2;ratioP2
15820;SDS011;8011;51.650;7.240;2022-07-23T03:05:56;7.10;;;6.40;;
15820;SDS011;8011;51.650;7.240;2022-07-23T03:08:22;8.23;;;6.50;;
15820;SDS011;8011;51.650;7.240;2022-07-23T03:10:49;7.23;;;6.50;;
15820;SDS011;8011;51.650;7.240;2022-07-23T03:13:14;6.93;;;6.10;;
15820;SDS011;8011;51.650;7.240;2022-07-23T03:15:40;8.93;;;7.43;;
15820;SDS011;8011;51.650;7.240;2022-07-23T03:18:06;6.77;;;6.07;;
15820;SDS011;8011;51.650;7.240;2022-07-23T03:20:31;9.17;;;6.60;;
15820;SDS011;8011;51.650;7.240;2022-07-23T03:22:57;7.00;;;6.30;;
15820;SDS011;8011;51.650;7.240;2022-07-23T03:28:04;8.60;;;6.43;;
15820;SDS011;8011;51.650;7.240;2022-07-23T03:30:29;8.17;;;7.10;;
15820;SDS011;8011;51.650;7.240;2022-07-23T03:32:55;9.50;;;7.77;;
15820;SDS011;8011;51.650;7.240;2022-07-23T03:35:36;8.73;;;7.50;;
15820;SDS011;8011;51.650;7.240;2022-07-23T03:38:02;8.27;;;7.47;;
15820;SDS011;8011;51.650;7.240;2022-07-23T03:40:27;8.23;;;7.07;;
15820;SDS011;8011;51.650;7.240;2022-07-23T03:42:53;8.40;;;7.60;;
15820;SDS011;8011;51.650;7.240;2022-07-23T03:45:18;8.43;;;7.20;;
15820;SDS011;8011;51.650;7.240;2022-07-23T03:47:44;8.03;;;7.23;;
15820;SDS011;8011;51.650;7.240;2022-07-23T03:50:10;7.63;;;6.80;;
15820;SDS011;8011;51.650;7.240;2022-07-23T03:52:36;9.27;;;6.87;;
15820;SDS011;8011;51.650;7.240;2022-07-23T03:55:02;11.10;;;8.07;;
15820;SDS011;8011;51.650;7.240;2022-07-23T03:57:28;8.17;;;7.27;;
15820;SDS011;8011;51.650;7.240;2022-07-23T03:59:54;8.27;;;7.43;;
15820;SDS011;8011;51.650;7.240;2022-07-23T04:02:20;9.53;;;6.90;;
15820;SDS011;8011;51.650;7.240;2022-07-23T04:04:46;7.70;;;6.90;;
15820;SDS011;8011;51.650;7.240;2022-07-23T04:07:11;9.80;;;7.40;;
15820;SDS011;8011;51.650;7.240;2022-07-23T04:09:37;8.13;;;6.83;;
15820;SDS011;8011;51.650;7.240;2022-07-23T04:12:05;9.10;;;7.17;;
15820;SDS011;8011;51.650;7.240;2022-07-23T04:14:32;7.33;;;6.67;;
15820;SDS011;8011;51.650;7.240;2022-07-23T04:16:58;9.77;;;7.20;;
15820;SDS011;8011;51.650;7.240;2022-07-23T04:19:24;9.20;;;6.93;;
15820;SDS011;8011;51.650;7.240;2022-07-23T04:21:50;9.87;;;7.40;;
15820;SDS011;8011;51.650;7.240;2022-07-23T04:24:16;9.03;;;7.23;;
15820;SDS011;8011;51.650;7.240;2022-07-23T04:26:41;8.13;;;7.10;;
15820;SDS011;8011;51.650;7.240;2022-07-23T04:29:07;10.30;;;7.53;;
15820;SDS011;8011;51.650;7.240;2022-07-23T04:31:33;8.30;;;7.47;;
15820;SDS011;8011;51.650;7.240;2022-07-23T04:33:58;8.07;;;6.60;;
15820;SDS011;8011;51.650;7.240;2022-07-23T04:36:24;7.73;;;6.93;;
15820;SDS011;8011;51.650;7.240;2022-07-23T04:38:50;7.73;;;6.93;;
15820;SDS011;8011;51.650;7.240;2022-07-23T04:41:15;8.77;;;7.70;;
15820;SDS011;8011;51.650;7.240;2022-07-23T04:43:41;9.67;;;8.07;;
15820;SDS011;8011;51.650;7.240;2022-07-23T04:46:06;10.50;;;7.33;;
15820;SDS011;8011;51.650;7.240;2022-07-23T04:48:32;9.20;;;8.07;;
15820;SDS011;8011;51.650;7.240;2022-07-23T04:50:58;9.10;;;7.93;;
15820;SDS011;8011;51.650;7.240;2022-07-23T04:53:24;9.10;;;8.20;;
15820;SDS011;8011;51.650;7.240;2022-07-23T04:55:49;10.00;;;7.93;;
15820;SDS011;8011;51.650;7.240;2022-07-23T04:58:15;9.10;;;8.20;;
15820;SDS011;8011;51.650;7.240;2022-07-23T05:00:40;9.13;;;8.23;;
15820;SDS011;8011;51.650;7.240;2022-07-23T05:03:06;8.73;;;7.57;;
15820;SDS011;8011;51.650;7.240;2022-07-23T05:05:32;10.50;;;7.83;;
15820;SDS011;8011;51.650;7.240;2022-07-23T05:07:58;8.67;;;7.83;;
15820;SDS011;8011;51.650;7.240;2022-07-23T05:10:23;11.10;;;7.97;;
15820;SDS011;8011;51.650;7.240;2022-07-23T05:12:49;7.73;;;6.80;;
15820;SDS011;8011;51.650;7.240;2022-07-23T05:15:14;9.30;;;8.40;;
15820;SDS011;8011;51.650;7.240;2022-07-23T05:17:41;8.87;;;7.63;;
15820;SDS011;8011;51.650;7.240;2022-07-23T05:20:06;8.47;;;7.40;;
15820;SDS011;8011;51.650;7.240;2022-07-23T05:22:32;8.63;;;7.50;;
15820;SDS011;8011;51.650;7.240;2022-07-23T05:24:58;8.63;;;7.07;;
15820;SDS011;8011;51.650;7.240;2022-07-23T05:27:23;10.20;;;7.47;;
15820;SDS011;8011;51.650;7.240;2022-07-23T05:29:49;9.70;;;7.30;;
15820;SDS011;8011;51.650;7.240;2022-07-23T05:32:15;8.00;;;7.20;;
15820;SDS011;8011;51.650;7.240;2022-07-23T05:34:41;11.93;;;7.87;;
15820;SDS011;8011;51.650;7.240;2022-07-23T05:37:06;8.43;;;6.97;;
15820;SDS011;8011;51.650;7.240;2022-07-23T05:39:32;8.80;;;6.77;;
15820;SDS011;8011;51.650;7.240;2022-07-23T05:41:58;9.63;;;7.40;;
15820;SDS011;8011;51.650;7.240;2022-07-23T05:44:23;9.97;;;7.30;;
15820;SDS011;8011;51.650;7.240;2022-07-23T05:46:49;8.53;;;7.00;;
15820;SDS011;8011;51.650;7.240;2022-07-23T05:49:15;8.63;;;6.53;;
15820;SDS011;8011;51.650;7.240;2022-07-23T05:51:40;7.93;;;6.63;;
15820;SDS011;8011;51.650;7.240;2022-07-23T05:54:06;8.37;;;6.30;;
15820;SDS011;8011;51.650;7.240;2022-07-23T05:56:31;7.93;;;6.20;;
15820;SDS011;8011;51.650;7.240;2022-07-23T05:58:57;10.17;;;6.77;;
15820;SDS011;8011;51.650;7.240;2022-07-23T06:01:23;6.63;;;5.93;;
15820;SDS011;8011;51.650;7.240;2022-07-23T06:03:48;6.17;;;5.57;;
15820;SDS011;8011;51.650;7.240;2022-07-23T06:06:14;6.10;;;5.50;;
15820;SDS011;8011;51.650;7.240;2022-07-23T06:08:40;6.03;;;5.43;;
15820;SDS011;8011;51.650;7.240;2022-07-23T06:11:05;6.63;;;5.23;;
15820;SDS011;8011;51.650;7.240;2022-07-23T06:13:31;6.63;;;5.87;;
15820;SDS011;8011;51.650;7.240;2022-07-23T06:15:57;7.33;;;5.90;;
15820;SDS011;8011;51.650;7.240;2022-07-23T06:18:22;6.80;;;5.60;;
15820;SDS011;8011;51.650;7.240;2022-07-23T06:20:48;6.30;;;5.67;;
15820;SDS011;8011;51.650;7.240;2022-07-23T06:23:13;5.93;;;5.43;;
15820;SDS011;8011;51.650;7.240;2022-07-23T06:25:39;9.20;;;6.23;;
15820;SDS011;8011;51.650;7.240;2022-07-23T06:28:05;7.03;;;6.33;;
15820;SDS011;8011;51.650;7.240;2022-07-23T06:30:30;7.07;;;6.37;;
15820;SDS011;8011;51.650;7.240;2022-07-23T06:32:56;9.33;;;6.50;;
15820;SDS011;8011;51.650;7.240;2022-07-23T06:35:22;8.03;;;6.30;;
15820;SDS011;8011;51.650;7.240;2022-07-23T06:37:47;8.20;;;6.90;;
15820;SDS011;8011;51.650;7.240;2022-07-23T06:40:13;8.53;;;6.50;;
15820;SDS011;8011;51.650;7.240;2022-07-23T06:42:39;8.07;;;6.20;;
15820;SDS011;8011;51.650;7.240;2022-07-23T06:45:05;8.53;;;6.07;;
15820;SDS011;8011;51.650;7.240;2022-07-23T06:47:31;6.70;;;5.47;;
15820;SDS011;8011;51.650;7.240;2022-07-23T06:49:57;6.33;;;5.50;;
15820;SDS011;8011;51.650;7.240;2022-07-23T06:52:23;6.10;;;5.30;;
15820;SDS011;8011;51.650;7.240;2022-07-23T06:54:49;7.10;;;5.67;;
15820;SDS011;8011;51.650;7.240;2022-07-23T06:57:14;8.13;;;5.57;;
15820;SDS011;8011;51.650;7.240;2022-07-23T06:59:40;7.27;;;5.60;;
15820;SDS011;8011;51.650;7.240;2022-07-23T07:02:07;6.67;;;5.93;;
15820;SDS011;8011;51.650;7.240;2022-07-23T07:04:33;6.17;;;5.40;;
15820;SDS011;8011;51.650;7.240;2022-07-23T07:06:59;5.97;;;5.13;;
15820;SDS011;8011;51.650;7.240;2022-07-23T07:09:24;7.53;;;4.87;;
15820;SDS011;8011;51.650;7.240;2022-07-23T07:11:50;6.60;;;4.77;;
15820;SDS011;8011;51.650;7.240;2022-07-23T07:14:16;7.40;;;5.80;;
15820;SDS011;8011;51.650;7.240;2022-07-23T07:16:42;6.60;;;5.50;;
15820;SDS011;8011;51.650;7.240;2022-07-23T07:19:07;5.17;;;4.67;;
15820;SDS011;8011;51.650;7.240;2022-07-23T07:21:33;5.97;;;5.17;;
15820;SDS011;8011;51.650;7.240;2022-07-23T07:23:59;5.63;;;4.53;;
15820;SDS011;8011;51.650;7.240;2022-07-23T07:26:25;5.83;;;4.83;;
15820;SDS011;8011;51.650;7.240;2022-07-23T07:28:51;5.70;;;4.50;;
15820;SDS011;8011;51.650;7.240;2022-07-23T07:31:16;5.17;;;3.90;;
15820;SDS011;8011;51.650;7.240;2022-07-23T07:33:42;5.47;;;4.37;;
15820;SDS011;8011;51.650;7.240;2022-07-23T07:36:08;4.83;;;4.37;;
15820;SDS011;8011;51.650;7.240;2022-07-23T07:38:33;3.77;;;3.47;;
15820;SDS011;8011;51.650;7.240;2022-07-23T07:40:59;7.27;;;4.00;;
15820;SDS011;8011;51.650;7.240;2022-07-23T07:43:25;6.30;;;4.20;;
15820;SDS011;8011;51.650;7.240;2022-07-23T07:45:50;6.87;;;3.80;;
15820;SDS011;8011;51.650;7.240;2022-07-23T07:48:16;4.27;;;3.23;;
15820;SDS011;8011;51.650;7.240;2022-07-23T07:50:42;5.50;;;3.50;;
15820;SDS011;8011;51.650;7.240;2022-07-23T07:53:07;5.53;;;3.43;;
15820;SDS011;8011;51.650;7.240;2022-07-23T07:55:34;4.90;;;3.03;;
15820;SDS011;8011;51.650;7.240;2022-07-23T07:58:00;4.83;;;3.23;;
15820;SDS011;8011;51.650;7.240;2022-07-23T08:00:25;4.27;;;3.50;;
15820;SDS011;8011;51.650;7.240;2022-07-23T08:02:52;7.03;;;3.70;;
15820;SDS011;8011;51.650;7.240;2022-07-23T08:05:21;4.67;;;3.50;;
15820;SDS011;8011;51.650;7.240;2022-07-23T08:07:49;3.40;;;3.07;;
15820;SDS011;8011;51.650;7.240;2022-07-23T08:10:15;5.30;;;3.37;;
15820;SDS011;8011;51.650;7.240;2022-07-23T08:12:42;5.47;;;3.87;;
15820;SDS011;8011;51.650;7.240;2022-07-23T08:15:10;9.03;;;3.60;;
15820;SDS011;8011;51.650;7.240;2022-07-23T08:17:36;6.77;;;3.93;;
15820;SDS011;8011;51.650;7.240;2022-07-23T08:20:03;8.70;;;4.37;;
15820;SDS011;8011;51.650;7.240;2022-07-23T08:25:15;5.10;;;3.80;;
15820;SDS011;8011;51.650;7.240;2022-07-23T08:27:41;5.77;;;3.73;;
15820;SDS011;8011;51.650;7.240;2022-07-23T08:30:07;4.10;;;3.40;;
15820;SDS011;8011;51.650;7.240;2022-07-23T08:32:47;4.63;;;3.87;;
15820;SDS011;8011;51.650;7.240;2022-07-23T08:35:13;3.80;;;3.00;;
15820;SDS011;8011;51.650;7.240;2022-07-23T08:37:39;4.17;;;3.20;;
15820;SDS011;8011;51.650;7.240;2022-07-23T08:40:05;4.77;;;3.40;;
15820;SDS011;8011;51.650;7.240;2022-07-23T08:42:31;4.40;;;3.37;;
15820;SDS011;8011;51.650;7.240;2022-07-23T08:45:00;4.37;;;3.63;;
15820;SDS011;8011;51.650;7.240;2022-07-23T08:47:27;4.27;;;3.17;;
15820;SDS011;8011;51.650;7.240;2022-07-23T08:49:54;4.87;;;2.97;;
15820;SDS011;8011;51.650;7.240;2022-07-23T08:52:21;3.63;;;2.83;;
15820;SDS011;8011;51.650;7.240;2022-07-23T08:54:48;3.63;;;3.00;;
15820;SDS011;8011;51.650;7.240;2022-07-23T08:57:14;4.40;;;2.77;;
15820;SDS011;8011;51.650;7.240;2022-07-23T08:59:40;4.37;;;2.70;;
15820;SDS011;8011;51.650;7.240;2022-07-23T09:02:06;2.67;;;2.40;;
15820;SDS011;8011;51.650;7.240;2022-07-23T09:04:32;4.50;;;2.97;;
15820;SDS011;8011;51.650;7.240;2022-07-23T09:06:57;4.93;;;3.00;;
15820;SDS011;8011;51.650;7.240;2022-07-23T09:09:24;4.37;;;2.63;;
15820;SDS011;8011;51.650;7.240;2022-07-23T09:12:08;3.23;;;2.80;;
15820;SDS011;8011;51.650;7.240;2022-07-23T09:14:44;5.70;;;3.07;;
15820;SDS011;8011;51.650;7.240;2022-07-23T09:17:12;2.70;;;2.43;;
15820;SDS011;8011;51.650;7.240;2022-07-23T09:19:40;5.13;;;2.60;;
15820;SDS011;8011;51.650;7.240;2022-07-23T09:22:16;4.70;;;2.50;;
15820;SDS011;8011;51.650;7.240;2022-07-23T09:25:06;20.57;;;13.53;;
15820;SDS011;8011;51.650;7.240;2022-07-23T09:30:25;4.27;;;3.83;;
15820;SDS011;8011;51.650;7.240;2022-07-23T09:33:05;5.70;;;3.83;;
15820;SDS011;8011;51.650;7.240;2022-07-23T09:38:20;3.10;;;2.80;;
15820;SDS011;8011;51.650;7.240;2022-07-23T09:40:47;3.20;;;2.80;;
15820;SDS011;8011;51.650;7.240;2022-07-23T09:43:33;4.00;;;2.80;;
15820;SDS011;8011;51.650;7.240;2022-07-23T09:46:18;2.90;;;2.57;;
15820;SDS011;8011;51.650;7.240;2022-07-23T09:48:49;2.90;;;2.50;;
15820;SDS011;8011;51.650;7.240;2022-07-23T09:51:16;3.13;;;2.27;;
15820;SDS011;8011;51.650;7.240;2022-07-23T09:54:20;2.33;;;2.13;;
15820;SDS011;8011;51.650;7.240;2022-07-23T09:57:04;3.70;;;2.37;;
15820;SDS011;8011;51.650;7.240;2022-07-23T09:59:37;5.33;;;2.40;;
15820;SDS011;8011;51.650;7.240;2022-07-23T10:02:04;4.57;;;2.37;;
15820;SDS011;8011;51.650;7.240;2022-07-23T10:04:32;2.57;;;2.33;;
15820;SDS011;8011;51.650;7.240;2022-07-23T10:07:00;4.37;;;2.60;;
15820;SDS011;8011;51.650;7.240;2022-07-23T10:09:32;2.40;;;2.20;;
15820;SDS011;8011;51.650;7.240;2022-07-23T10:12:00;2.07;;;1.97;;
15820;SDS011;8011;51.650;7.240;2022-07-23T10:14:47;1.90;;;1.67;;
15820;SDS011;8011;51.650;7.240;2022-07-23T10:17:13;2.30;;;2.10;;
15820;SDS011;8011;51.650;7.240;2022-07-23T10:19:39;4.87;;;2.00;;
15820;SDS011;8011;51.650;7.240;2022-07-23T10:22:09;2.00;;;1.80;;
15820;SDS011;8011;51.650;7.240;2022-07-23T10:38:30;1.80;;;1.70;;
15820;SDS011;8011;51.650;7.240;2022-07-23T10:41:05;2.40;;;1.97;;
15820;SDS011;8011;51.650;7.240;2022-07-23T10:43:31;2.50;;;1.37;;
15820;SDS011;8011;51.650;7.240;2022-07-23T10:49:25;3.50;;;1.80;;
15820;SDS011;8011;51.650;7.240;2022-07-23T10:57:48;2.53;;;1.50;;
15820;SDS011;8011;51.650;7.240;2022-07-23T11:00:24;2.93;;;1.53;;
15820;SDS011;8011;51.650;7.240;2022-07-23T11:02:58;1.93;;;1.73;;
15820;SDS011;8011;51.650;7.240;2022-07-23T11:05:42;1.90;;;1.10;;
15820;SDS011;8011;51.650;7.240;2022-07-23T11:08:11;1.63;;;1.40;;
15820;SDS011;8011;51.650;7.240;2022-07-23T11:37:06;4.10;;;1.70;;
15820;SDS011;8011;51.650;7.240;2022-07-23T11:39:37;1.33;;;1.20;;
15820;SDS011;8011;51.650;7.240;2022-07-23T11:42:04;4.53;;;1.50;;
15820;SDS011;8011;51.650;7.240;2022-07-23T11:44:36;4.67;;;1.70;;
15820;SDS011;8011;51.650;7.240;2022-07-23T11:47:04;1.70;;;1.43;;
15820;SDS011;8011;51.650;7.240;2022-07-23T11:49:31;1.93;;;1.43;;
15820;SDS011;8011;51.650;7.240;2022-07-23T11:54:32;2.77;;;1.30;;
15820;SDS011;8011;51.650;7.240;2022-07-23T11:56:59;1.97;;;1.33;;
15820;SDS011;8011;51.650;7.240;2022-07-23T11:59:26;2.47;;;1.33;;
15820;SDS011;8011;51.650;7.240;2022-07-23T12:04:23;2.03;;;1.40;;
15820;SDS011;8011;51.650;7.240;2022-07-23T12:06:49;1.57;;;1.20;;
15820;SDS011;8011;51.650;7.240;2022-07-23T12:09:15;1.83;;;1.13;;
15820;SDS011;8011;51.650;7.240;2022-07-23T12:11:56;1.50;;;1.40;;
15820;SDS011;8011;51.650;7.240;2022-07-23T12:14:23;3.40;;;1.40;;
15820;SDS011;8011;51.650;7.240;2022-07-23T12:17:06;2.33;;;1.40;;
15820;SDS011;8011;51.650;7.240;2022-07-23T12:19:32;4.30;;;1.67;;
15820;SDS011;8011;51.650;7.240;2022-07-23T12:21:58;3.03;;;1.67;;
15820;SDS011;8011;51.650;7.240;2022-07-23T12:24:24;2.07;;;1.50;;
15820;SDS011;8011;51.650;7.240;2022-07-23T12:27:09;3.63;;;1.30;;
15820;SDS011;8011;51.650;7.240;2022-07-23T12:29:36;2.17;;;1.27;;
15820;SDS011;8011;51.650;7.240;2022-07-23T12:32:02;1.90;;;1.43;;
15820;SDS011;8011;51.650;7.240;2022-07-23T12:34:41;1.40;;;1.30;;
15820;SDS011;8011;51.650;7.240;2022-07-23T12:37:07;4.30;;;1.80;;
15820;SDS011;8011;51.650;7.240;2022-07-23T12:39:33;2.27;;;1.60;;
15820;SDS011;8011;51.650;7.240;2022-07-23T12:41:59;1.53;;;1.23;;
15820;SDS011;8011;51.650;7.240;2022-07-23T12:44:24;1.90;;;1.60;;
15820;SDS011;8011;51.650;7.240;2022-07-23T12:46:51;1.30;;;1.20;;
15820;SDS011;8011;51.650;7.240;2022-07-23T12:49:27;1.90;;;1.30;;
15820;SDS011;8011;51.650;7.240;2022-07-23T12:51:53;1.77;;;1.27;;
15820;SDS011;8011;51.650;7.240;2022-07-23T12:54:19;2.77;;;1.40;;
15820;SDS011;8011;51.650;7.240;2022-07-23T12:56:53;3.80;;;1.80;;
15820;SDS011;8011;51.650;7.240;2022-07-23T12:59:19;1.80;;;1.63;;
15820;SDS011;8011;51.650;7.240;2022-07-23T13:01:54;2.10;;;1.60;;
15820;SDS011;8011;51.650;7.240;2022-07-23T13:04:23;2.07;;;1.57;;
15820;SDS011;8011;51.650;7.240;2022-07-23T13:06:50;2.07;;;1.50;;
15820;SDS011;8011;51.650;7.240;2022-07-23T13:09:19;1.60;;;1.50;;
15820;SDS011;8011;51.650;7.240;2022-07-23T13:11:47;1.60;;;1.50;;
15820;SDS011;8011;51.650;7.240;2022-07-23T13:14:15;2.50;;;1.40;;
15820;SDS011;8011;51.650;7.240;2022-07-23T13:16:41;3.47;;;1.43;;
15820;SDS011;8011;51.650;7.240;2022-07-23T13:19:08;1.67;;;1.57;;
15820;SDS011;8011;51.650;7.240;2022-07-23T13:21:34;3.23;;;1.70;;
15820;SDS011;8011;51.650;7.240;2022-07-23T13:24:00;3.50;;;1.27;;
15820;SDS011;8011;51.650;7.240;2022-07-23T13:26:26;1.80;;;1.50;;
15820;SDS011;8011;51.650;7.240;2022-07-23T13:28:52;2.53;;;1.50;;
15820;SDS011;8011;51.650;7.240;2022-07-23T13:31:18;2.77;;;1.60;;
15820;SDS011;8011;51.650;7.240;2022-07-23T13:33:44;1.93;;;1.37;;
15820;SDS011;8011;51.650;7.240;2022-07-23T13:36:10;1.90;;;1.53;;
15820;SDS011;8011;51.650;7.240;2022-07-23T13:38:36;3.38;;;1.40;;
15820;SDS011;8011;51.650;7.240;2022-07-23T13:41:02;1.83;;;1.40;;
15820;SDS011;8011;51.650;7.240;2022-07-23T13:43:30;2.27;;;1.77;;
15820;SDS011;8011;51.650;7.240;2022-07-23T13:45:57;2.10;;;1.88;;
15820;SDS011;8011;51.650;7.240;2022-07-23T13:48:23;2.30;;;1.52;;
15820;SDS011;8011;51.650;7.240;2022-07-23T13:50:49;1.70;;;1.60;;
15820;SDS011;8011;51.650;7.240;2022-07-23T13:53:20;1.88;;;1.40;;
15820;SDS011;8011;51.650;7.240;2022-07-23T13:55:49;3.40;;;1.50;;
15820;SDS011;8011;51.650;7.240;2022-07-23T13:58:18;1.50;;;1.40;;
15820;SDS011;8011;51.650;7.240;2022-07-23T14:00:45;2.42;;;1.77;;
15820;SDS011;8011;51.650;7.240;2022-07-23T14:03:12;2.22;;;1.77;;
15820;SDS011;8011;51.650;7.240;2022-07-23T14:05:38;2.38;;;1.65;;
15820;SDS011;8011;51.650;7.240;2022-07-23T14:08:04;1.38;;;1.27;;
15820;SDS011;8011;51.650;7.240;2022-07-23T14:10:30;2.30;;;1.85;;
15820;SDS011;8011;51.650;7.240;2022-07-23T14:12:56;3.55;;;1.80;;
15820;SDS011;8011;51.650;7.240;2022-07-23T14:15:24;1.40;;;1.30;;
15820;SDS011;8011;51.650;7.240;2022-07-23T14:17:51;1.85;;;1.60;;
15820;SDS011;8011;51.650;7.240;2022-07-23T14:20:18;2.80;;;1.50;;
15820;SDS011;8011;51.650;7.240;2022-07-23T14:22:44;2.95;;;1.80;;
15820;SDS011;8011;51.650;7.240;2022-07-23T14:25:10;2.35;;;1.95;;
15820;SDS011;8011;51.650;7.240;2022-07-23T14:27:36;2.95;;;1.95;;
15820;SDS011;8011;51.650;7.240;2022-07-23T14:30:03;2.10;;;1.70;;
15820;SDS011;8011;51.650;7.240;2022-07-23T14:32:30;2.17;;;1.55;;
15820;SDS011;8011;51.650;7.240;2022-07-23T14:34:56;2.75;;;1.70;;
15820;SDS011;8011;51.650;7.240;2022-07-23T14:37:22;2.95;;;1.75;;
15820;SDS011;8011;51.650;7.240;2022-07-23T14:39:47;1.95;;;1.77;;
15820;SDS011;8011;51.650;7.240;2022-07-23T14:42:14;3.10;;;1.77;;
15820;SDS011;8011;51.650;7.240;2022-07-23T14:44:40;3.50;;;1.73;;
15820;SDS011;8011;51.650;7.240;2022-07-23T14:47:07;2.17;;;1.75;;
15820;SDS011;8011;51.650;7.240;2022-07-23T14:49:34;3.30;;;1.80;;
15820;SDS011;8011;51.650;7.240;2022-07-23T14:52:00;2.38;;;1.80;;
15820;SDS011;8011;51.650;7.240;2022-07-23T14:54:26;2.75;;;1.90;;
15820;SDS011;8011;51.650;7.240;2022-07-23T14:56:53;1.85;;;1.45;;
15820;SDS011;8011;51.650;7.240;2022-07-23T14:59:20;4.10;;;1.73;;
15820;SDS011;8011;51.650;7.240;2022-07-23T15:01:46;3.08;;;1.80;;
15820;SDS011;8011;51.650;7.240;2022-07-23T15:04:11;2.50;;;1.60;;
15820;SDS011;8011;51.650;7.240;2022-07-23T15:06:37;1.77;;;1.67;;
15820;SDS011;8011;51.650;7.240;2022-07-23T15:09:04;3.15;;;1.83;;
15820;SDS011;8011;51.650;7.240;2022-07-23T15:11:30;2.75;;;1.60;;
15820;SDS011;8011;51.650;7.240;2022-07-23T15:14:02;2.00;;;1.80;;
15820;SDS011;8011;51.650;7.240;2022-07-23T15:16:29;4.30;;;2.20;;
15820;SDS011;8011;51.650;7.240;2022-07-23T15:18:55;3.10;;;1.98;;
15820;SDS011;8011;51.650;7.240;2022-07-23T15:21:21;2.20;;;2.00;;
15820;SDS011;8011;51.650;7.240;2022-07-23T15:23:47;3.40;;;1.90;;
15820;SDS011;8011;51.650;7.240;2022-07-23T15:26:13;3.07;;;2.07;;
15820;SDS011;8011;51.650;7.240;2022-07-23T15:28:40;3.25;;;2.78;;
15820;SDS011;8011;51.650;7.240;2022-07-23T15:31:06;1.75;;;1.65;;
15820;SDS011;8011;51.650;7.240;2022-07-23T15:33:32;4.00;;;2.08;;
15820;SDS011;8011;51.650;7.240;2022-07-23T15:35:58;2.20;;;2.00;;
15820;SDS011;8011;51.650;7.240;2022-07-23T15:38:25;2.03;;;1.83;;
15820;SDS011;8011;51.650;7.240;2022-07-23T15:40:52;2.20;;;2.00;;
15820;SDS011;8011;51.650;7.240;2022-07-23T15:43:19;3.13;;;2.08;;
15820;SDS011;8011;51.650;7.240;2022-07-23T15:45:45;2.53;;;2.15;;
15820;SDS011;8011;51.650;7.240;2022-07-23T15:48:11;2.57;;;1.93;;
15820;SDS011;8011;51.650;7.240;2022-07-23T15:50:37;3.00;;;2.10;;
15820;SDS011;8011;51.650;7.240;2022-07-23T15:53:03;3.17;;;1.90;;
15820;SDS011;8011;51.650;7.240;2022-07-23T15:55:28;2.20;;;2.00;;
15820;SDS011;8011;51.650;7.240;2022-07-23T15:57:54;3.75;;;2.20;;
15820;SDS011;8011;51.650;7.240;2022-07-23T16:00:20;2.90;;;2.00;;
15820;SDS011;8011;51.650;7.240;2022-07-23T16:02:45;2.13;;;1.80;;
15820;SDS011;8011;51.650;7.240;2022-07-23T16:05:11;2.20;;;2.00;;
15820;SDS011;8011;51.650;7.240;2022-07-23T16:07:37;3.37;;;2.60;;
15820;SDS011;8011;51.650;7.240;2022-07-23T16:10:04;1.75;;;1.65;;
15820;SDS011;8011;51.650;7.240;2022-07-23T16:12:30;2.70;;;2.07;;
15820;SDS011;8011;51.650;7.240;2022-07-23T16:14:56;6.05;;;2.08;;
15820;SDS011;8011;51.650;7.240;2022-07-23T16:17:22;2.33;;;2.13;;
15820;SDS011;8011;51.650;7.240;2022-07-23T16:19:47;2.70;;;2.00;;
15820;SDS011;8011;51.650;7.240;2022-07-23T16:22:13;2.15;;;1.80;;
15820;SDS011;8011;51.650;7.240;2022-07-23T16:24:41;3.75;;;1.90;;
15820;SDS011;8011;51.650;7.240;2022-07-23T16:27:07;1.83;;;1.73;;
15820;SDS011;8011;51.650;7.240;2022-07-23T16:29:32;2.00;;;1.80;;
15820;SDS011;8011;51.650;7.240;2022-07-23T16:31:58;1.90;;;1.80;;
15820;SDS011;8011;51.650;7.240;2022-07-23T16:34:24;2.57;;;1.87;;
15820;SDS011;8011;51.650;7.240;2022-07-23T16:36:49;4.53;;;2.28;;
15820;SDS011;8011;51.650;7.240;2022-07-23T16:39:15;3.65;;;1.77;;
15820;SDS011;8011;51.650;7.240;2022-07-23T16:41:41;2.35;;;2.13;;
15820;SDS011;8011;51.650;7.240;2022-07-23T16:44:07;2.53;;;2.08;;
15820;SDS011;8011;51.650;7.240;2022-07-23T16:46:33;2.15;;;1.83;;
15820;SDS011;8011;51.650;7.240;2022-07-23T16:48:58;4.63;;;1.88;;
15820;SDS011;8011;51.650;7.240;2022-07-23T16:51:24;3.40;;;1.75;;
15820;SDS011;8011;51.650;7.240;2022-07-23T16:53:50;2.03;;;1.83;;
15820;SDS011;8011;51.650;7.240;2022-07-23T16:56:16;2.05;;;1.75;;
15820;SDS011;8011;51.650;7.240;2022-07-23T16:58:41;2.60;;;2.10;;
15820;SDS011;8011;51.650;7.240;2022-07-23T17:01:07;1.80;;;1.50;;
15820;SDS011;8011;51.650;7.240;2022-07-23T17:03:33;2.63;;;1.85;;
15820;SDS011;8011;51.650;7.240;2022-07-23T17:05:59;1.75;;;1.60;;
15820;SDS011;8011;51.650;7.240;2022-07-23T17:08:25;3.00;;;1.90;;
15820;SDS011;8011;51.650;7.240;2022-07-23T17:10:51;2.70;;;1.83;;
15820;SDS011;8011;51.650;7.240;2022-07-23T17:13:17;4.25;;;1.85;;
15820;SDS011;8011;51.650;7.240;2022-07-23T17:15:43;3.08;;;1.83;;
15820;SDS011;8011;51.650;7.240;2022-07-23T17:18:09;2.45;;;1.85;;
15820;SDS011;8011;51.650;7.240;2022-07-23T17:20:38;3.45;;;2.28;;
15820;SDS011;8011;51.650;7.240;2022-07-23T17:23:04;2.25;;;1.83;;
15820;SDS011;8011;51.650;7.240;2022-07-23T17:25:30;1.88;;;1.75;;
15820;SDS011;8011;51.650;7.240;2022-07-23T17:27:56;1.85;;;1.60;;
15820;SDS011;8011;51.650;7.240;2022-07-23T17:30:22;1.90;;;1.77;;
15820;SDS011;8011;51.650;7.240;2022-07-23T17:32:47;2.85;;;2.17;;
15820;SDS011;8011;51.650;7.240;2022-07-23T17:35:13;2.00;;;1.88;;
15820;SDS011;8011;51.650;7.240;2022-07-23T17:37:39;2.72;;;2.13;;
15820;SDS011;8011;51.650;7.240;2022-07-23T17:40:06;2.35;;;1.80;;
15820;SDS011;8011;51.650;7.240;2022-07-23T17:42:32;1.77;;;1.67;;
15820;SDS011;8011;51.650;7.240;2022-07-23T17:44:58;2.22;;;2.03;;
15820;SDS011;8011;51.650;7.240;2022-07-23T17:47:24;1.90;;;1.60;;
15820;SDS011;8011;51.650;7.240;2022-07-23T17:49:49;3.45;;;2.08;;
15820;SDS011;8011;51.650;7.240;2022-07-23T17:52:15;2.92;;;1.90;;
15820;SDS011;8011;51.650;7.240;2022-07-23T17:54:41;3.10;;;1.60;;
15820;SDS011;8011;51.650;7.240;2022-07-23T17:57:07;3.85;;;1.92;;
15820;SDS011;8011;51.650;7.240;2022-07-23T17:59:33;2.00;;;1.80;;
15820;SDS011;8011;51.650;7.240;2022-07-23T18:01:59;3.93;;;2.00;;
15820;SDS011;8011;51.650;7.240;2022-07-23T18:04:28;2.10;;;1.70;;
15820;SDS011;8011;51.650;7.240;2022-07-23T18:06:54;2.63;;;1.77;;
15820;SDS011;8011;51.650;7.240;2022-07-23T18:09:20;3.10;;;1.67;;
15820;SDS011;8011;51.650;7.240;2022-07-23T18:11:46;2.15;;;1.95;;
15820;SDS011;8011;51.650;7.240;2022-07-23T18:14:11;3.20;;;2.00;;
15820;SDS011;8011;51.650;7.240;2022-07-23T18:16:37;3.65;;;2.10;;
15820;SDS011;8011;51.650;7.240;2022-07-23T18:19:03;2.70;;;2.10;;
15820;SDS011;8011;51.650;7.240;2022-07-23T18:21:30;3.63;;;1.98;;
15820;SDS011;8011;51.650;7.240;2022-07-23T18:23:56;2.20;;;2.00;;
15820;SDS011;8011;51.650;7.240;2022-07-23T18:26:22;2.33;;;1.90;;
15820;SDS011;8011;51.650;7.240;2022-07-23T18:28:48;2.03;;;1.80;;
15820;SDS011;8011;51.650;7.240;2022-07-23T18:31:14;3.70;;;2.33;;
15820;SDS011;8011;51.650;7.240;2022-07-23T18:33:40;3.00;;;1.97;;
15820;SDS011;8011;51.650;7.240;2022-07-23T18:36:06;2.50;;;1.90;;
15820;SDS011;8011;51.650;7.240;2022-07-23T18:38:32;2.35;;;1.90;;
15820;SDS011;8011;51.650;7.240;2022-07-23T18:40:58;1.90;;;1.80;;
15820;SDS011;8011;51.650;7.240;2022-07-23T18:43:24;3.93;;;1.70;;
15820;SDS011;8011;51.650;7.240;2022-07-23T18:45:50;2.22;;;2.03;;
15820;SDS011;8011;51.650;7.240;2022-07-23T18:48:16;2.13;;;1.92;;
15820;SDS011;8011;51.650;7.240;2022-07-23T18:50:42;3.92;;;2.10;;
15820;SDS011;8011;51.650;7.240;2022-07-23T18:53:09;2.37;;;2.00;;
15820;SDS011;8011;51.650;7.240;2022-07-23T18:55:36;2.03;;;1.83;;
15820;SDS011;8011;51.650;7.240;2022-07-23T18:58:02;2.13;;;1.93;;
15820;SDS011;8011;51.650;7.240;2022-07-23T19:00:29;2.83;;;2.07;;
15820;SDS011;8011;51.650;7.240;2022-07-23T19:02:56;2.10;;;2.00;;
15820;SDS011;8011;51.650;7.240;2022-07-23T19:05:23;2.60;;;2.10;;
15820;SDS011;8011;51.650;7.240;2022-07-23T19:07:49;2.60;;;2.13;;
15820;SDS011;8011;51.650;7.240;2022-07-23T19:10:14;4.23;;;2.00;;